createdAt,value
2023-01-11T00:11:07.289Z,100.00
2023-01-11T00:14:49.718Z,100.00
2023-01-11T00:18:38.967Z,100.00
2023-01-11T00:22:28.140Z,100.00
2023-01-11T00:26:17.171Z,100.00
2023-01-11T00:30:06.219Z,100.00
2023-01-11T00:33:58.342Z,100.00
2023-01-11T00:37:47.670Z,100.00
2023-01-11T00:41:35.118Z,100.00
2023-01-11T00:45:24.226Z,100.00
2023-01-11T00:49:13.359Z,100.00
2023-01-11T00:53:02.568Z,100.00
2023-01-11T00:56:52.527Z,100.00
2023-01-11T01:00:41.837Z,100.00
2023-01-11T01:08:18.475Z,100.00
2023-01-11T01:35:20.815Z,100.00
2023-01-11T01:39:02.244Z,100.00
2023-01-11T01:42:52.817Z,100.00
2023-01-11T01:46:40.770Z,100.00
2023-01-11T01:50:28.727Z,100.00
2023-01-11T01:54:16.397Z,100.00
2023-01-11T01:58:04.595Z,100.00
2023-01-11T02:14:00.169Z,100.00
2023-01-11T02:17:49.513Z,100.00
2023-01-11T02:22:03.084Z,100.00
2023-01-11T02:38:14.075Z,100.00
2023-01-11T02:42:04.828Z,100.00
2023-01-11T02:45:44.970Z,100.00
2023-01-11T02:49:37.093Z,100.00
2023-01-11T03:05:11.998Z,100.00
2023-01-11T03:09:22.733Z,100.00
2023-01-11T03:13:17.254Z,100.00
2023-01-11T03:24:44.165Z,100.00
2023-01-11T03:28:42.221Z,100.00
2023-01-11T03:32:36.483Z,100.00
2023-01-11T03:44:13.150Z,100.00
2023-01-11T03:48:02.148Z,100.00
2023-01-11T03:51:51.189Z,100.00
2023-01-11T03:55:40.203Z,100.00
2023-01-11T03:59:24.115Z,100.00
2023-01-11T04:03:14.659Z,100.00
2023-01-11T04:06:42.146Z,100.00
2023-01-11T04:10:31.170Z,100.00
2023-01-11T04:14:20.329Z,100.00
2023-01-11T04:18:09.507Z,100.00
2023-01-11T04:21:59.367Z,100.00
2023-01-11T04:37:42.388Z,100.00
2023-01-11T04:41:30.038Z,100.00
2023-01-11T04:45:19.243Z,100.00
2023-01-11T04:49:08.203Z,100.00
2023-01-11T04:52:57.751Z,100.00
2023-01-11T04:56:47.001Z,100.00
2023-01-11T05:00:37.182Z,100.00
2023-01-11T05:04:26.318Z,100.00
2023-01-11T05:08:08.226Z,100.00
2023-01-11T05:11:58.621Z,100.00
2023-01-11T05:38:54.270Z,100.00
2023-01-11T05:42:43.427Z,100.00
2023-01-11T05:46:24.870Z,100.00
2023-01-11T05:50:13.997Z,100.00
2023-01-11T05:53:53.356Z,100.00
2023-01-11T05:57:43.397Z,100.00
2023-01-11T06:01:35.749Z,100.00
2023-01-11T06:04:22.916Z,100.00
2023-01-11T06:07:50.637Z,100.00
2023-01-11T06:11:38.464Z,100.00
2023-01-11T06:15:25.756Z,100.00
2023-01-11T06:19:13.446Z,100.00
2023-01-11T06:23:01.364Z,100.00
2023-01-11T06:26:50.065Z,100.00
2023-01-11T06:30:37.916Z,100.00
2023-01-11T06:34:08.703Z,100.00
2023-01-11T06:37:51.791Z,100.00
2023-01-11T06:41:40.017Z,100.00
2023-01-11T06:45:28.277Z,100.00
2023-01-11T06:49:05.157Z,100.00
2023-01-11T06:52:41.832Z,100.00
2023-01-11T06:56:29.767Z,100.00
2023-01-11T07:00:08.623Z,100.00
2023-01-11T07:17:49.114Z,100.00
2023-01-11T07:21:04.079Z,100.00
2023-01-11T07:24:31.208Z,100.00
2023-01-11T07:27:21.624Z,100.00
2023-01-11T07:30:58.765Z,100.00
2023-01-11T07:34:48.481Z,100.00
2023-01-11T07:38:10.622Z,100.00
2023-01-11T07:41:57.250Z,100.00
2023-01-11T07:45:45.278Z,100.00
2023-01-11T07:49:37.728Z,100.00
2023-01-11T07:53:16.955Z,100.00
2023-01-11T07:57:06.727Z,100.00
2023-01-11T08:00:56.277Z,100.00
2023-01-11T08:04:45.623Z,100.00
2023-01-11T08:08:37.066Z,100.00
2023-01-11T08:12:25.101Z,100.00
2023-01-11T08:16:14.387Z,100.00
2023-01-11T08:20:03.897Z,100.00
2023-01-11T08:23:12.915Z,100.00
2023-01-11T08:25:52.051Z,100.00
2023-01-11T08:29:35.998Z,100.00
2023-01-11T08:40:35.685Z,100.00
2023-01-11T08:47:09.581Z,100.00
2023-01-11T08:50:21.272Z,100.00
2023-01-11T09:23:14.195Z,100.00
2023-01-11T09:26:46.964Z,100.00
2023-01-11T09:30:26.110Z,100.00
2023-01-11T09:33:37.670Z,100.00
2023-01-11T09:36:43.237Z,100.00
2023-01-11T09:40:25.377Z,100.00
2023-01-11T09:44:14.617Z,100.00
2023-01-11T09:48:43.271Z,100.00
2023-01-11T10:18:23.559Z,100.00
2023-01-11T10:19:05.916Z,100.00
2023-01-11T10:22:59.823Z,100.00
2023-01-11T10:26:38.365Z,100.00
2023-01-11T10:30:52.965Z,100.00
2023-01-11T10:58:03.775Z,100.00
2023-01-11T11:02:00.578Z,100.00
2023-01-11T11:16:58.626Z,100.00
2023-01-11T11:20:44.239Z,100.00
2023-01-11T11:24:13.678Z,100.00
2023-01-11T11:28:05.921Z,100.00
2023-01-11T11:31:36.424Z,100.00
2023-01-11T11:35:06.993Z,100.00
2023-01-11T11:50:27.413Z,100.00
2023-01-11T11:54:31.113Z,100.00
2023-01-11T11:57:22.418Z,100.00
2023-01-11T12:00:45.618Z,100.00
2023-01-11T12:04:25.346Z,100.00
2023-01-11T12:07:54.720Z,100.00
2023-01-11T12:11:47.883Z,100.00
2023-01-11T12:26:56.277Z,98.49
2023-01-11T12:30:54.702Z,98.77
2023-01-11T12:34:32.168Z,95.49
2023-01-11T12:38:54.792Z,94.53
2023-01-11T12:42:36.960Z,94.20
2023-01-11T12:50:22.703Z,87.16
2023-01-11T13:09:02.471Z,83.97
2023-01-11T13:13:00.613Z,83.45
2023-01-11T13:28:44.309Z,79.52
2023-01-11T13:32:34.848Z,73.97
2023-01-11T13:36:47.335Z,76.24
2023-01-11T13:40:37.646Z,75.32
2023-01-11T13:52:31.206Z,78.34
2023-01-11T13:56:20.307Z,79.36
2023-01-11T14:00:12.695Z,79.79
2023-01-11T14:04:03.103Z,80.68
2023-01-11T14:16:33.399Z,82.06
2023-01-11T14:20:21.234Z,82.73
2023-01-11T14:24:34.507Z,84.01
2023-01-11T14:28:15.893Z,82.36
2023-01-11T14:44:17.057Z,82.98
2023-01-11T14:48:30.881Z,83.79
2023-01-11T14:52:39.634Z,84.18
2023-01-11T15:08:23.040Z,88.77
2023-01-11T15:12:21.814Z,87.09
2023-01-11T15:16:12.647Z,86.16
2023-01-11T15:24:05.796Z,82.07
2023-01-11T15:28:05.131Z,80.99
2023-01-11T15:32:12.602Z,81.57
2023-01-11T15:40:03.898Z,83.03
2023-01-11T15:43:57.263Z,83.01
2023-01-11T15:47:44.896Z,82.53
2023-01-11T15:51:36.823Z,80.47
2023-01-11T16:07:27.923Z,78.11
2023-01-11T16:11:17.350Z,77.56
2023-01-11T16:15:20.268Z,78.91
2023-01-11T16:27:40.431Z,81.19
2023-01-11T16:31:10.879Z,81.31
2023-01-11T16:34:38.663Z,81.30
2023-01-11T16:38:03.253Z,81.71
2023-01-11T16:41:52.089Z,81.73
2023-01-11T16:53:36.306Z,80.64
2023-01-11T16:57:21.207Z,80.64
2023-01-11T17:01:19.507Z,80.05
2023-01-11T17:04:45.107Z,80.39
2023-01-11T17:20:14.578Z,80.14
2023-01-11T17:24:03.654Z,80.23
2023-01-11T17:27:56.098Z,80.17
2023-01-11T17:39:44.934Z,80.10
2023-01-11T17:43:37.204Z,79.67
2023-01-11T17:47:19.204Z,79.14
2023-01-11T17:51:27.868Z,78.78
2023-01-11T18:07:21.282Z,75.81
2023-01-11T18:11:20.537Z,75.25
2023-01-11T18:15:08.892Z,76.33
2023-01-11T18:23:13.314Z,77.79
2023-01-11T18:27:08.780Z,77.48
2023-01-11T18:31:11.207Z,77.79
2023-01-11T18:34:30.132Z,77.15
2023-01-11T18:37:20.258Z,76.73
2023-01-11T18:40:51.191Z,76.77
2023-01-11T18:44:31.200Z,76.82
2023-01-11T18:48:29.991Z,76.72
2023-01-11T18:52:00.921Z,76.38
2023-01-11T19:04:19.098Z,76.53
2023-01-11T19:08:06.648Z,77.49
2023-01-11T19:11:24.243Z,77.82
2023-01-11T19:15:11.979Z,78.07
2023-01-11T19:19:00.123Z,78.35
2023-01-11T19:46:11.500Z,79.87
2023-01-11T19:49:59.832Z,79.82
2023-01-11T19:53:49.006Z,79.47
2023-01-11T19:57:41.288Z,79.19
2023-01-11T20:01:30.518Z,79.24
2023-01-11T20:05:02.016Z,79.77
2023-01-11T20:08:51.277Z,79.82
2023-01-11T20:12:40.689Z,79.96
2023-01-11T20:15:59.818Z,80.87
2023-01-11T20:18:55.679Z,80.14
2023-01-11T20:22:44.723Z,80.98
2023-01-11T20:25:56.370Z,81.67
2023-01-11T20:29:45.737Z,81.32
2023-01-11T20:36:54.139Z,80.83
2023-01-11T20:55:52.060Z,82.38
2023-01-11T20:58:50.498Z,82.80
2023-01-11T21:02:31.067Z,83.38
2023-01-11T21:06:19.255Z,84.15
2023-01-11T21:09:58.253Z,85.10
2023-01-11T21:13:46.261Z,85.73
2023-01-11T21:16:35.929Z,86.13
2023-01-11T21:20:03.183Z,86.27
2023-01-11T21:23:51.148Z,86.94
2023-01-11T21:27:29.018Z,87.35
2023-01-11T21:31:18.803Z,87.80
2023-01-11T21:35:07.202Z,88.21
2023-01-11T21:38:55.649Z,88.35
2023-01-11T21:42:44.112Z,88.13
2023-01-11T21:46:27.865Z,88.34
2023-01-11T21:50:17.986Z,88.35
2023-01-11T21:53:45.389Z,88.63
2023-01-11T22:01:20.493Z,90.01
2023-01-11T22:05:11.566Z,90.46
2023-01-11T22:08:58.784Z,91.16
2023-01-11T22:12:46.498Z,92.14
2023-01-11T22:16:35.541Z,92.70
2023-01-11T22:27:57.646Z,92.40
2023-01-11T22:31:44.919Z,92.69
2023-01-11T22:35:21.981Z,93.43
2023-01-11T22:46:40.805Z,99.19
2023-01-11T22:50:07.685Z,100.00
2023-01-11T22:52:43.257Z,100.00
2023-01-11T22:56:10.451Z,100.00
2023-01-11T22:59:35.999Z,100.00
2023-01-11T23:03:23.652Z,100.00
2023-01-11T23:06:54.692Z,100.00
2023-01-11T23:09:44.567Z,100.00
2023-01-11T23:12:50.679Z,100.00
2023-01-11T23:16:25.598Z,100.00
2023-01-11T23:20:13.144Z,100.00
2023-01-11T23:23:26.918Z,100.00
2023-01-11T23:27:04.701Z,100.00
2023-01-11T23:30:52.352Z,100.00
2023-01-11T23:34:40.014Z,100.00
2023-01-11T23:49:50.822Z,100.00
2023-01-11T23:53:38.588Z,100.00
2023-01-11T23:57:24.965Z,100.00
